Time;durP1;ratioP1;P1;durP2;ratioP2;P2;SDS_P1;SDS_P2;PMS_P1;PMS_P2;Temp;Humidity;BMP_temperature;BMP_pressure;BME280_temperature;BME280_humidity;BME280_pressure;Samples;Min_cycle;Max_cycle;Signal;HPM_P1;HPM_P2
2021/06/23 00:01:34;;;;;;;1.80;0.60;;;14.90;99.90;;;;;;4994518;28;20019;-72
2021/06/23 00:04:00;;;;;;;4.38;0.57;;;14.80;99.90;;;;;;4994381;28;20019;-72
2021/06/23 00:06:26;;;;;;;1.27;0.50;;;14.80;99.90;;;;;;4994555;28;20022;-72
2021/06/23 00:08:52;;;;;;;2.88;0.88;;;14.80;99.90;;;;;;4994216;28;20109;-73
2021/06/23 00:11:18;;;;;;;0.60;0.50;;;14.70;99.90;;;;;;4994437;28;20034;-73
2021/06/23 00:13:44;;;;;;;0.80;0.50;;;14.70;99.90;;;;;;4994112;28;20051;-73
2021/06/23 00:16:10;;;;;;;0.40;0.32;;;14.60;99.90;;;;;;4994669;28;20022;-73
2021/06/23 00:18:37;;;;;;;0.40;0.30;;;14.60;99.90;;;;;;4993012;28;20028;-73
2021/06/23 00:21:03;;;;;;;0.65;0.40;;;14.60;99.90;;;;;;4994146;28;20038;-73
2021/06/23 00:23:29;;;;;;;1.30;0.43;;;14.60;99.90;;;;;;4994194;28;20018;-73
2021/06/23 00:25:56;;;;;;;1.35;0.50;;;14.60;99.90;;;;;;4994082;28;20041;-73
2021/06/23 00:28:22;;;;;;;0.52;0.47;;;14.50;99.90;;;;;;4994469;28;20077;-73
2021/06/23 00:30:48;;;;;;;0.98;0.50;;;14.50;99.90;;;;;;4993961;28;20031;-73
2021/06/23 00:33:19;;;;;;;0.30;0.30;;;14.40;99.90;;;;;;4994295;28;20114;-73
2021/06/23 00:35:46;;;;;;;0.93;0.50;;;14.40;99.90;;;;;;4993851;28;20476;-73
2021/06/23 00:38:12;;;;;;;1.95;0.50;;;14.30;99.90;;;;;;4993849;28;20105;-73
2021/06/23 00:40:38;;;;;;;0.50;0.50;;;14.30;99.90;;;;;;4993808;28;20085;-73
2021/06/23 00:43:05;;;;;;;2.28;0.50;;;14.30;99.90;;;;;;4993839;28;20039;-72
2021/06/23 00:45:32;;;;;;;1.30;0.50;;;14.30;99.90;;;;;;4993841;28;20538;-73
2021/06/23 00:47:58;;;;;;;0.43;0.40;;;14.20;99.90;;;;;;4993477;28;20035;-73
2021/06/23 00:50:26;;;;;;;2.83;0.40;;;14.20;99.90;;;;;;4993626;28;20030;-71
2021/06/23 00:52:54;;;;;;;0.93;0.50;;;14.10;99.90;;;;;;4993118;28;20023;-72
2021/06/23 00:55:24;;;;;;;2.15;0.52;;;14.10;99.90;;;;;;4993815;28;20042;-72
2021/06/23 00:57:52;;;;;;;1.30;0.70;;;14.10;99.90;;;;;;4993560;28;20033;-72
2021/06/23 01:00:29;;;;;;;0.40;0.40;;;14.00;99.90;;;;;;4993716;28;20085;-72
2021/06/23 01:02:56;;;;;;;2.85;0.60;;;14.00;99.90;;;;;;4993233;28;20045;-72
2021/06/23 01:05:22;;;;;;;2.45;0.65;;;14.00;99.90;;;;;;4993473;28;20512;-72
2021/06/23 01:07:49;;;;;;;1.08;0.50;;;13.90;99.90;;;;;;4993418;28;20026;-73
2021/06/23 01:10:15;;;;;;;0.60;0.60;;;13.90;99.90;;;;;;4993547;28;20391;-72
2021/06/23 01:13:15;;;;;;;1.35;0.57;;;13.90;99.90;;;;;;4993181;28;20030;-72
2021/06/23 01:15:42;;;;;;;0.68;0.60;;;13.90;99.90;;;;;;4991993;28;20045;-72
2021/06/23 01:51:48;;;;;;;0.68;0.60;;;13.70;99.90;;;;;;6045070;23;20047;-70
2021/06/23 01:54:14;;;;;;;3.50;0.73;;;13.70;99.90;;;;;;5029478;28;20045;-71
2021/06/23 01:56:39;;;;;;;1.05;0.73;;;13.70;99.90;;;;;;5031922;28;20056;-71
2021/06/23 01:59:05;;;;;;;1.98;0.60;;;13.70;99.90;;;;;;5031959;28;20026;-71
2021/06/23 02:01:59;;;;;;;0.90;0.80;;;13.70;99.90;;;;;;5031867;28;20037;-71
2021/06/23 02:04:50;;;;;;;2.10;0.70;;;13.70;99.90;;;;;;5031776;28;20026;-71
2021/06/23 02:07:31;;;;;;;2.15;0.70;;;13.70;99.90;;;;;;5031826;28;20033;-71
2021/06/23 02:10:15;;;;;;;2.88;0.70;;;13.70;99.90;;;;;;5031865;28;20033;-71
2021/06/23 02:13:04;;;;;;;0.80;0.60;;;13.70;99.90;;;;;;5014067;28;20036;-71
2021/06/23 02:15:36;;;;;;;2.55;0.60;;;13.70;99.90;;;;;;5013907;28;20391;-71
2021/06/23 02:18:03;;;;;;;1.23;0.70;;;13.70;99.90;;;;;;5014118;28;20025;-72
2021/06/23 02:20:32;;;;;;;0.77;0.60;;;13.70;99.90;;;;;;5031612;28;20017;-71
2021/06/23 02:22:58;;;;;;;0.68;0.50;;;13.80;99.90;;;;;;5031703;28;20017;-71
2021/06/23 02:25:24;;;;;;;1.73;0.63;;;13.80;99.90;;;;;;5031565;28;20021;-71
2021/06/23 02:27:50;;;;;;;1.55;0.70;;;13.80;99.90;;;;;;5031560;28;20040;-71
2021/06/23 02:30:16;;;;;;;4.47;0.80;;;13.80;99.90;;;;;;5031451;28;20025;-71
2021/06/23 02:32:44;;;;;;;1.15;0.50;;;13.80;99.90;;;;;;5031491;28;20116;-71
2021/06/23 02:35:10;;;;;;;0.60;0.52;;;13.80;99.90;;;;;;5031555;28;20037;-71
2021/06/23 02:37:36;;;;;;;1.85;0.63;;;13.80;99.90;;;;;;5031272;28;20022;-71
2021/06/23 02:40:05;;;;;;;1.58;0.80;;;13.80;99.90;;;;;;5031706;28;20160;-70
2021/06/23 02:42:31;;;;;;;3.53;0.63;;;13.80;99.90;;;;;;5031596;28;20021;-70
2021/06/23 02:44:57;;;;;;;1.33;0.60;;;13.80;99.90;;;;;;5034018;28;20052;-70
2021/06/23 02:47:23;;;;;;;0.90;0.80;;;13.80;99.90;;;;;;5035611;28;20021;-70
2021/06/23 02:49:49;;;;;;;1.55;0.60;;;13.80;99.90;;;;;;5035650;28;20033;-70
2021/06/23 02:52:17;;;;;;;0.68;0.65;;;13.80;99.90;;;;;;5035018;28;20103;-70
2021/06/23 02:54:45;;;;;;;0.40;0.40;;;13.70;99.90;;;;;;5035132;28;20037;-70
2021/06/23 02:57:11;;;;;;;1.58;0.50;;;13.70;99.90;;;;;;5035273;28;20380;-70
2021/06/23 02:59:37;;;;;;;2.03;0.60;;;13.70;99.90;;;;;;5035246;28;20110;-70
2021/06/23 03:02:04;;;;;;;2.80;0.45;;;13.80;99.90;;;;;;5035076;28;20029;-71
2021/06/23 03:04:31;;;;;;;0.75;0.47;;;13.80;99.90;;;;;;5034824;28;20033;-71
2021/06/23 03:07:09;;;;;;;1.52;0.40;;;13.80;99.90;;;;;;5035198;28;20029;-71
2021/06/23 03:09:35;;;;;;;0.60;0.43;;;13.70;99.90;;;;;;5034779;28;20018;-71
2021/06/23 03:12:01;;;;;;;0.55;0.47;;;13.70;99.90;;;;;;5035054;28;20025;-71
2021/06/23 03:14:27;;;;;;;0.77;0.40;;;13.70;99.90;;;;;;5034457;28;20152;-71
2021/06/23 03:16:52;;;;;;;1.08;0.50;;;13.70;99.90;;;;;;5034742;28;20021;-71
2021/06/23 03:19:18;;;;;;;1.92;0.40;;;13.60;99.90;;;;;;5034515;28;20021;-71
2021/06/23 03:21:44;;;;;;;1.00;0.50;;;13.60;99.90;;;;;;5034969;28;20028;-71
2021/06/23 03:24:10;;;;;;;0.40;0.40;;;13.60;99.90;;;;;;5034521;28;20026;-71
2021/06/23 03:26:35;;;;;;;1.17;0.50;;;13.60;99.90;;;;;;5034500;28;20072;-71
2021/06/23 03:29:27;;;;;;;0.68;0.40;;;13.60;99.90;;;;;;5034794;28;20358;-71
2021/06/23 03:31:53;;;;;;;0.55;0.38;;;13.50;99.90;;;;;;5034510;28;20030;-71
2021/06/23 03:34:19;;;;;;;2.20;0.50;;;13.50;99.90;;;;;;5034119;28;20064;-71
2021/06/23 03:36:44;;;;;;;0.88;0.40;;;13.50;99.90;;;;;;5034666;28;20060;-72
2021/06/23 03:39:10;;;;;;;2.05;0.47;;;13.50;99.90;;;;;;5034276;28;20022;-71
2021/06/23 03:41:36;;;;;;;0.75;0.52;;;13.50;99.90;;;;;;5034123;28;20080;-71
2021/06/23 03:44:02;;;;;;;7.18;0.50;;;13.60;99.90;;;;;;5034415;28;20025;-72
2021/06/23 03:46:29;;;;;;;2.08;0.52;;;13.50;99.90;;;;;;5034091;28;20491;-72
2021/06/23 03:48:56;;;;;;;0.40;0.40;;;13.60;99.90;;;;;;5034429;28;20028;-71
2021/06/23 03:51:23;;;;;;;1.00;0.40;;;13.60;99.90;;;;;;5034093;28;20075;-71
2021/06/23 03:53:48;;;;;;;0.37;0.30;;;13.60;99.90;;;;;;5033710;28;20093;-71
2021/06/23 03:56:14;;;;;;;3.08;0.40;;;13.60;99.90;;;;;;5033381;28;20632;-72
2021/06/23 03:58:42;;;;;;;0.47;0.30;;;13.60;99.90;;;;;;5033797;28;20022;-71
2021/06/23 04:01:08;;;;;;;1.60;0.38;;;13.60;99.90;;;;;;5034228;28;20034;-71
2021/06/23 04:03:34;;;;;;;1.05;0.60;;;13.60;99.90;;;;;;5033736;28;20022;-72
2021/06/23 04:05:59;;;;;;;0.30;0.30;;;13.50;99.90;;;;;;5033978;28;20022;-72
2021/06/23 04:08:25;;;;;;;0.57;0.40;;;13.50;99.90;;;;;;5033884;28;20037;-72
2021/06/23 04:10:51;;;;;;;0.70;0.40;;;13.50;99.90;;;;;;5033902;28;20025;-72
2021/06/23 04:13:17;;;;;;;3.20;0.45;;;13.50;99.90;;;;;;5033945;28;20029;-71
2021/06/23 04:15:43;;;;;;;0.73;0.45;;;13.50;99.90;;;;;;5033585;28;20107;-72
2021/06/23 04:18:08;;;;;;;0.38;0.38;;;13.50;99.90;;;;;;5033864;28;20028;-72
2021/06/23 04:20:34;;;;;;;2.92;0.32;;;13.50;99.90;;;;;;5033423;28;20362;-71
2021/06/23 04:23:00;;;;;;;0.63;0.40;;;13.50;99.90;;;;;;5033460;28;20029;-72
2021/06/23 04:25:26;;;;;;;2.90;0.32;;;13.50;99.90;;;;;;5033363;28;20032;-71
2021/06/23 04:27:52;;;;;;;0.85;0.40;;;13.50;99.90;;;;;;5033305;28;20048;-71
2021/06/23 04:30:18;;;;;;;0.65;0.40;;;13.50;99.90;;;;;;5033448;28;20079;-70
2021/06/23 04:32:44;;;;;;;0.50;0.30;;;13.50;99.90;;;;;;5033252;28;20017;-80
2021/06/23 04:35:11;;;;;;;0.93;0.30;;;13.50;99.90;;;;;;5033189;28;20575;-79
2021/06/23 04:37:40;;;;;;;1.95;0.40;;;13.50;99.90;;;;;;5033424;28;20021;-75
2021/06/23 04:40:09;;;;;;;3.05;0.30;;;13.60;99.90;;;;;;5033314;28;20048;-81
2021/06/23 04:42:34;;;;;;;4.53;0.60;;;13.80;99.90;;;;;;5032993;28;20020;-79
2021/06/23 04:45:00;;;;;;;0.77;0.60;;;13.70;99.90;;;;;;5032987;28;20481;-78
2021/06/23 04:47:26;;;;;;;3.88;0.50;;;13.70;99.90;;;;;;5033113;28;20025;-79
2021/06/23 04:49:52;;;;;;;0.75;0.50;;;13.80;99.90;;;;;;5032911;28;20025;-73
2021/06/23 04:52:17;;;;;;;1.73;0.70;;;13.80;99.90;;;;;;5032692;28;20129;-68
2021/06/23 04:54:43;;;;;;;4.35;0.85;;;13.80;99.90;;;;;;5032589;28;20049;-71
2021/06/23 04:57:09;;;;;;;6.85;0.73;;;13.90;99.90;;;;;;5032959;28;20104;-71
2021/06/23 04:59:35;;;;;;;4.53;0.50;;;13.90;99.90;;;;;;5032638;28;20028;-70
2021/06/23 05:02:01;;;;;;;7.10;0.98;;;14.00;99.90;;;;;;5032675;28;20029;-71
2021/06/23 05:04:27;;;;;;;0.93;0.52;;;14.00;99.90;;;;;;5014889;28;20452;-72
2021/06/23 05:06:52;;;;;;;1.27;0.50;;;14.00;99.90;;;;;;5032125;28;20480;-70
2021/06/23 05:09:18;;;;;;;1.45;0.63;;;14.00;99.90;;;;;;5032136;28;20025;-71
2021/06/23 05:11:45;;;;;;;2.92;0.55;;;14.10;99.90;;;;;;5032049;28;20083;-72
2021/06/23 05:14:11;;;;;;;0.80;0.40;;;14.10;99.90;;;;;;5032134;28;20546;-72
2021/06/23 05:16:38;;;;;;;1.27;0.57;;;14.10;99.90;;;;;;5032266;28;20493;-72
2021/06/23 05:19:04;;;;;;;1.02;0.40;;;14.10;99.90;;;;;;5032246;28;20075;-72
2021/06/23 05:21:34;;;;;;;0.80;0.40;;;14.10;99.90;;;;;;5032379;28;20477;-72
2021/06/23 05:24:01;;;;;;;2.17;0.50;;;14.10;99.90;;;;;;5032189;28;20029;-72
2021/06/23 05:26:27;;;;;;;3.00;0.40;;;14.20;99.90;;;;;;5032120;28;20044;-72
2021/06/23 05:28:53;;;;;;;1.10;0.85;;;14.20;99.90;;;;;;5032109;28;20389;-72
2021/06/23 05:31:20;;;;;;;0.85;0.32;;;14.20;99.90;;;;;;5032352;28;20416;-79
2021/06/23 05:33:46;;;;;;;2.88;0.47;;;14.20;99.90;;;;;;5032087;28;20029;-78
2021/06/23 05:36:11;;;;;;;4.10;1.40;;;14.10;99.90;;;;;;5032080;28;20045;-80
2021/06/23 05:38:37;;;;;;;7.97;0.73;;;14.20;99.90;;;;;;5032288;28;20083;-81
2021/06/23 05:41:03;;;;;;;6.90;0.50;;;14.20;99.90;;;;;;5032226;28;20103;-78
2021/06/23 05:43:29;;;;;;;0.90;0.40;;;14.30;99.90;;;;;;5031974;28;20025;-78
2021/06/23 05:45:55;;;;;;;11.65;1.00;;;14.30;99.90;;;;;;5032180;28;20611;-78
2021/06/23 05:48:21;;;;;;;0.70;0.47;;;14.30;99.90;;;;;;5032364;28;20112;-77
2021/06/23 05:50:47;;;;;;;0.30;0.30;;;14.30;99.90;;;;;;5032060;28;20033;-77
2021/06/23 05:53:12;;;;;;;3.00;0.40;;;14.30;99.90;;;;;;5031808;28;20049;-77
2021/06/23 05:55:40;;;;;;;0.30;0.28;;;14.30;99.90;;;;;;5013476;28;20045;-77
2021/06/23 05:58:05;;;;;;;0.40;0.40;;;14.40;99.90;;;;;;5012251;28;20025;-79
2021/06/23 06:00:31;;;;;;;1.88;0.40;;;14.40;99.90;;;;;;5012370;28;20105;-77
2021/06/23 06:02:57;;;;;;;1.52;0.70;;;14.40;99.90;;;;;;5012447;28;20061;-77
2021/06/23 06:05:23;;;;;;;4.18;0.60;;;14.50;99.90;;;;;;5012122;28;20449;-77
2021/06/23 06:07:50;;;;;;;3.50;0.38;;;14.50;99.90;;;;;;5012639;28;20128;-77
2021/06/23 06:10:16;;;;;;;1.58;0.50;;;14.50;99.90;;;;;;5012693;28;20053;-82
2021/06/23 06:12:41;;;;;;;1.30;0.50;;;14.50;99.90;;;;;;5014002;28;20053;-79
2021/06/23 06:15:08;;;;;;;1.55;0.38;;;14.50;99.90;;;;;;5012684;28;20041;-80
2021/06/23 06:17:34;;;;;;;0.32;0.32;;;14.50;99.90;;;;;;5013012;28;20022;-79
2021/06/23 06:20:00;;;;;;;1.05;0.40;;;14.60;99.90;;;;;;5014977;28;20030;-78
2021/06/23 06:22:27;;;;;;;0.93;0.40;;;14.60;99.90;;;;;;4998362;28;20485;-81
2021/06/23 06:24:53;;;;;;;4.20;0.55;;;14.60;99.90;;;;;;5015951;28;20099;-81
2021/06/23 06:27:19;;;;;;;1.98;0.57;;;14.70;99.90;;;;;;5034375;28;20025;-75
2021/06/23 06:29:45;;;;;;;8.02;0.80;;;14.80;99.90;;;;;;5035677;28;20037;-78
2021/06/23 06:32:10;;;;;;;1.17;0.50;;;14.90;99.90;;;;;;5035693;28;20440;-77
2021/06/23 06:34:36;;;;;;;0.60;0.50;;;14.90;99.90;;;;;;5035283;28;20042;-78
2021/06/23 06:37:02;;;;;;;0.95;0.40;;;14.90;99.90;;;;;;5035731;28;20057;-78
2021/06/23 06:39:28;;;;;;;3.78;0.47;;;14.80;99.90;;;;;;5035604;28;20415;-78
2021/06/23 06:41:53;;;;;;;0.40;0.40;;;14.80;99.90;;;;;;5017840;28;20028;-78
2021/06/23 06:44:21;;;;;;;2.03;0.82;;;14.90;99.90;;;;;;5035412;28;20080;-74
2021/06/23 06:46:47;;;;;;;2.38;0.80;;;15.00;99.90;;;;;;5035377;28;20087;-74
2021/06/23 06:49:12;;;;;;;0.30;0.30;;;15.50;99.90;;;;;;5035285;28;20473;-77
2021/06/23 06:51:38;;;;;;;2.75;0.40;;;15.70;99.90;;;;;;5034674;28;20026;-77
2021/06/23 06:54:04;;;;;;;1.48;0.47;;;15.60;99.90;;;;;;5025430;28;20128;-76
2021/06/23 06:56:30;;;;;;;0.70;0.30;;;15.50;99.90;;;;;;5022781;28;20026;-76
2021/06/23 06:58:55;;;;;;;3.80;0.50;;;15.50;99.90;;;;;;5009717;28;20029;-75
2021/06/23 07:01:21;;;;;;;1.02;0.50;;;15.50;99.90;;;;;;5033336;28;20096;-75
2021/06/23 07:03:47;;;;;;;0.30;0.30;;;15.50;99.90;;;;;;5022745;28;20054;-76
2021/06/23 07:06:13;;;;;;;2.33;0.32;;;15.40;99.90;;;;;;5015256;28;20571;-75
2021/06/23 07:08:38;;;;;;;0.98;0.38;;;15.40;99.90;;;;;;5014911;28;20423;-75
2021/06/23 07:11:04;;;;;;;2.80;0.40;;;15.40;99.90;;;;;;4997503;28;20029;-75
2021/06/23 07:13:30;;;;;;;7.35;0.52;;;15.40;99.90;;;;;;5014754;28;20405;-76
2021/06/23 07:15:55;;;;;;;5.10;0.40;;;15.40;99.90;;;;;;5014882;28;20045;-78
2021/06/23 07:18:21;;;;;;;0.95;0.30;;;15.40;99.90;;;;;;4997621;28;20057;-78
2021/06/23 07:20:47;;;;;;;2.83;0.45;;;15.30;99.90;;;;;;5014814;28;20362;-78
2021/06/23 07:23:12;;;;;;;0.32;0.30;;;15.30;99.90;;;;;;5015218;28;20026;-77
2021/06/23 07:25:38;;;;;;;4.07;0.43;;;15.40;99.90;;;;;;5014874;28;20030;-78
2021/06/23 07:28:04;;;;;;;2.80;0.40;;;15.40;99.90;;;;;;5014791;28;20495;-75
2021/06/23 07:30:32;;;;;;;3.72;0.40;;;15.30;99.90;;;;;;5013632;28;20091;-78
2021/06/23 07:33:02;;;;;;;1.17;0.40;;;15.30;99.90;;;;;;5015748;28;20049;-76
2021/06/23 07:38:15;;;;;;;4.18;0.30;;;15.40;99.90;;;;;;5034290;28;20095;-74
2021/06/23 07:43:12;;;;;;;2.63;0.52;;;15.40;99.90;;;;;;5034227;28;20180;-73
2021/06/23 07:45:42;;;;;;;2.60;0.40;;;15.40;99.90;;;;;;5015841;28;20044;-75
2021/06/23 07:48:09;;;;;;;0.40;0.32;;;15.40;99.90;;;;;;5024490;28;20021;-78
2021/06/23 07:50:40;;;;;;;2.30;0.40;;;15.60;99.90;;;;;;5033034;28;20485;-72
2021/06/23 07:53:16;;;;;;;0.63;0.32;;;15.60;99.90;;;;;;5015418;28;20045;-76
2021/06/23 07:55:47;;;;;;;1.65;0.32;;;15.70;99.90;;;;;;5027432;28;20040;-76
2021/06/23 08:09:29;;;;;;;0.40;0.30;;;16.30;99.90;;;;;;5033343;28;20079;-75
2021/06/23 08:12:15;;;;;;;0.88;0.40;;;16.40;99.90;;;;;;5033379;28;20036;-68
2021/06/23 08:14:40;;;;;;;2.47;0.30;;;16.50;99.90;;;;;;5032683;28;20108;-68
2021/06/23 08:17:07;;;;;;;2.30;0.50;;;16.50;99.90;;;;;;5032833;28;20429;-69
2021/06/23 08:19:33;;;;;;;1.48;0.40;;;16.60;99.90;;;;;;5016722;28;20093;-71
2021/06/23 08:21:59;;;;;;;1.42;0.40;;;16.70;99.90;;;;;;5033049;28;20101;-69
2021/06/23 08:24:25;;;;;;;1.00;0.40;;;16.80;99.90;;;;;;5033157;28;20021;-70
2021/06/23 08:26:50;;;;;;;3.50;0.50;;;16.80;99.90;;;;;;5032526;28;20065;-74
2021/06/23 08:29:16;;;;;;;0.75;0.35;;;16.80;99.90;;;;;;5032791;28;20025;-73
2021/06/23 08:31:42;;;;;;;0.50;0.30;;;16.80;99.90;;;;;;5032812;28;20026;-81
2021/06/23 08:34:08;;;;;;;69.15;3.40;;;16.80;99.90;;;;;;5032216;28;20032;-73
2021/06/23 08:36:34;;;;;;;13.07;0.80;;;16.90;99.90;;;;;;5028969;28;20037;-75
2021/06/23 08:38:59;;;;;;;1.38;0.45;;;17.00;99.90;;;;;;5031864;28;20034;-75
2021/06/23 08:41:26;;;;;;;0.38;0.38;;;17.10;99.90;;;;;;5029478;28;20029;-75
2021/06/23 08:44:00;;;;;;;2.45;0.30;;;17.10;99.90;;;;;;5032518;28;20020;-73
2021/06/23 08:46:26;;;;;;;2.70;0.40;;;17.10;99.90;;;;;;5032771;28;20025;-75
2021/06/23 08:48:53;;;;;;;3.95;0.30;;;17.10;99.60;;;;;;5032464;28;20036;-75
2021/06/23 08:51:21;;;;;;;51.33;5.63;;;17.10;99.60;;;;;;5032348;28;20026;-75
2021/06/23 08:53:47;;;;;;;393.15;35.15;;;17.10;99.40;;;;;;5032228;28;20064;-76
2021/06/23 08:56:12;;;;;;;7.32;0.80;;;16.90;99.90;;;;;;5031819;28;20116;-76
2021/06/23 08:58:40;;;;;;;0.90;0.40;;;16.90;99.90;;;;;;4995602;28;20050;-79
2021/06/23 09:01:05;;;;;;;3.03;0.40;;;16.90;99.90;;;;;;5012974;28;20036;-81
2021/06/23 09:04:04;;;;;;;0.52;0.30;;;16.80;99.40;;;;;;5012733;28;20104;-80
2021/06/23 09:06:41;;;;;;;0.63;0.30;;;16.80;98.80;;;;;;5012687;28;20085;-79
2021/06/23 09:09:20;;;;;;;3.50;0.50;;;16.70;99.20;;;;;;5012222;28;20041;-81
2021/06/23 09:11:47;;;;;;;1.08;0.40;;;16.70;99.90;;;;;;5013455;28;20017;-81
2021/06/23 09:14:15;;;;;;;0.63;0.40;;;16.80;99.90;;;;;;5012706;28;20025;-78
2021/06/23 09:17:04;;;;;;;0.68;0.20;;;16.80;99.90;;;;;;5012720;28;20037;-81
2021/06/23 09:19:40;;;;;;;1.10;0.53;;;16.80;99.00;;;;;;5012521;28;20026;-76
2021/06/23 09:22:32;;;;;;;1.38;0.38;;;16.80;99.70;;;;;;5030157;28;20023;-78
2021/06/23 09:24:59;;;;;;;1.35;0.30;;;16.90;99.00;;;;;;5019379;28;20041;-77
2021/06/23 09:27:28;;;;;;;1.20;0.30;;;17.00;99.10;;;;;;5032314;28;20032;-77
2021/06/23 09:30:36;;;;;;;0.68;0.40;;;16.90;99.30;;;;;;5032149;28;20018;-77
2021/06/23 09:33:24;;;;;;;0.20;0.20;;;16.90;99.10;;;;;;5026525;28;20029;-77
2021/06/23 09:35:56;;;;;;;1.92;0.38;;;17.00;98.00;;;;;;5024238;28;20118;-77
2021/06/23 09:38:46;;;;;;;0.45;0.40;;;17.00;97.50;;;;;;5012380;28;20429;-77
2021/06/23 09:41:20;;;;;;;;;;;16.90;97.40;;;;;;5012791;28;20116;-77
2021/06/23 09:43:49;;;;;;;17.60;0.80;;;16.90;99.40;;;;;;5012414;28;19948;-76
2021/06/23 09:46:29;;;;;;;1.23;0.30;;;16.90;99.90;;;;;;5012246;28;20374;-77
2021/06/23 09:49:09;;;;;;;1.00;0.40;;;16.90;99.10;;;;;;5012007;28;20025;-77
2021/06/23 09:51:59;;;;;;;0.67;0.40;;;17.00;98.20;;;;;;4997911;28;20478;-77
2021/06/23 09:54:31;;;;;;;0.82;0.30;;;17.20;97.20;;;;;;4995629;28;20046;-78
2021/06/23 09:57:06;;;;;;;1.02;0.30;;;17.20;98.30;;;;;;5001106;28;20018;-77
2021/06/23 09:59:36;;;;;;;2.70;0.38;;;17.40;99.20;;;;;;5000592;28;20026;-77
2021/06/23 10:02:02;;;;;;;2.45;0.47;;;17.20;98.10;;;;;;4999990;28;20501;-77
2021/06/23 10:04:32;;;;;;;2.40;0.50;;;17.20;98.70;;;;;;5000848;28;20101;-78
2021/06/23 10:06:58;;;;;;;2.03;0.32;;;17.30;98.50;;;;;;4993872;28;20539;-78
2021/06/23 10:09:25;;;;;;;0.95;0.40;;;17.20;98.10;;;;;;5000688;28;20026;-77
2021/06/23 10:11:56;;;;;;;4.38;0.45;;;17.10;98.20;;;;;;5002620;28;20134;-77
2021/06/23 10:14:24;;;;;;;1.65;0.40;;;16.90;98.70;;;;;;5002871;28;21342;-76
2021/06/23 10:16:52;;;;;;;0.50;0.40;;;16.90;98.10;;;;;;5012120;28;20053;-76
2021/06/23 10:19:18;;;;;;;3.03;0.50;;;16.90;99.90;;;;;;5012029;28;20501;-76
2021/06/23 10:21:45;;;;;;;0.57;0.38;;;17.00;99.80;;;;;;4999000;28;20359;-78
2021/06/23 10:24:13;;;;;;;1.60;0.50;;;17.10;98.30;;;;;;4992277;28;20097;-78
2021/06/23 10:26:50;;;;;;;3.70;0.50;;;17.10;98.40;;;;;;4992180;28;20031;-78
2021/06/23 10:29:30;;;;;;;1.63;0.30;;;17.10;98.80;;;;;;4988535;28;20103;-76
2021/06/23 10:31:56;;;;;;;3.53;0.47;;;17.10;98.00;;;;;;4993095;28;20041;-76
2021/06/23 10:34:23;;;;;;;0.90;0.45;;;17.00;97.40;;;;;;4998641;28;20052;-77
2021/06/23 10:36:50;;;;;;;3.47;0.47;;;16.90;98.40;;;;;;5000445;28;20031;-77
2021/06/23 10:39:17;;;;;;;3.42;0.43;;;16.90;98.30;;;;;;5000734;28;20128;-76
2021/06/23 10:41:45;;;;;;;2.90;0.57;;;16.80;98.20;;;;;;5001970;28;20474;-77
2021/06/23 10:44:18;;;;;;;0.90;0.30;;;16.80;99.50;;;;;;4997318;28;20493;-77
2021/06/23 10:46:46;;;;;;;0.65;0.40;;;16.80;98.80;;;;;;4994767;28;20038;-77
2021/06/23 10:49:16;;;;;;;2.17;0.55;;;16.90;99.90;;;;;;4996276;28;20025;-78
2021/06/23 10:51:43;;;;;;;0.80;0.50;;;17.00;99.00;;;;;;5011046;28;20040;-75
2021/06/23 10:54:27;;;;;;;3.58;0.50;;;16.90;98.60;;;;;;5029631;28;20068;-77
2021/06/23 10:56:53;;;;;;;1.58;0.55;;;17.00;97.60;;;;;;5017156;28;20021;-77
2021/06/23 10:59:35;;;;;;;2.80;0.85;;;17.00;98.50;;;;;;5011844;28;20382;-77
2021/06/23 11:02:14;;;;;;;0.93;0.40;;;17.00;97.90;;;;;;5010097;28;20026;-77
2021/06/23 11:05:00;;;;;;;1.02;0.52;;;16.90;99.00;;;;;;5010998;28;20030;-75
2021/06/23 11:07:43;;;;;;;0.93;0.60;;;17.00;99.80;;;;;;4998692;28;20026;-77
2021/06/23 11:10:15;;;;;;;8.05;0.70;;;17.20;98.20;;;;;;5014570;28;20022;-77
2021/06/23 11:12:44;;;;;;;1.33;0.50;;;17.10;99.10;;;;;;5001794;28;20069;-76
2021/06/23 11:15:33;;;;;;;3.30;0.40;;;17.10;99.90;;;;;;5009072;28;20050;-75
2021/06/23 11:18:31;;;;;;;4.07;0.98;;;17.10;99.30;;;;;;4988144;28;20034;-78
2021/06/23 11:21:02;;;;;;;7.50;2.13;;;17.00;99.20;;;;;;5014270;28;20129;-81
2021/06/23 11:23:54;;;;;;;1.42;0.50;;;17.00;99.30;;;;;;4998498;28;20101;-79
2021/06/23 11:26:22;;;;;;;2.10;0.50;;;17.00;99.60;;;;;;5014181;28;20026;-78
2021/06/23 11:28:50;;;;;;;3.05;0.80;;;16.90;99.50;;;;;;5014264;28;20038;-78
2021/06/23 11:31:17;;;;;;;1.63;0.60;;;17.00;99.50;;;;;;5014308;28;20514;-79
2021/06/23 11:33:45;;;;;;;3.42;0.68;;;17.00;99.10;;;;;;5013770;28;20541;-78
2021/06/23 11:36:19;;;;;;;3.47;0.82;;;16.90;99.60;;;;;;5014312;28;20042;-78
2021/06/23 11:38:47;;;;;;;0.55;0.40;;;17.00;99.90;;;;;;5014942;28;20072;-78
2021/06/23 11:41:14;;;;;;;1.50;0.60;;;17.10;99.90;;;;;;5014545;28;20045;-78
2021/06/23 11:43:40;;;;;;;6.03;0.60;;;17.20;99.90;;;;;;5014404;28;20048;-78
2021/06/23 11:46:05;;;;;;;2.58;0.30;;;17.20;99.80;;;;;;5014603;28;20112;-78
2021/06/23 11:48:32;;;;;;;3.03;0.50;;;17.10;98.60;;;;;;5014600;28;20470;-78
2021/06/23 11:50:58;;;;;;;4.03;0.63;;;17.00;98.50;;;;;;4996225;28;20457;-79
2021/06/23 11:53:24;;;;;;;5.38;0.85;;;17.00;99.90;;;;;;5014029;28;20080;-77
2021/06/23 11:55:51;;;;;;;1.98;0.88;;;17.10;99.90;;;;;;5013967;28;20037;-77
2021/06/23 11:58:18;;;;;;;1.40;0.80;;;17.10;99.90;;;;;;5012961;28;20030;-78
2021/06/23 12:00:44;;;;;;;3.95;0.80;;;17.10;99.90;;;;;;5013965;28;20117;-79
2021/06/23 12:03:12;;;;;;;1.13;0.50;;;17.10;99.90;;;;;;4998616;28;20109;-78
2021/06/23 12:05:38;;;;;;;2.30;0.77;;;17.20;99.70;;;;;;4994392;28;20034;-78
2021/06/23 12:08:06;;;;;;;1.48;0.70;;;17.20;99.50;;;;;;4994483;28;20018;-78
2021/06/23 12:10:33;;;;;;;1.50;0.77;;;17.20;99.40;;;;;;4994614;28;20041;-79
2021/06/23 12:12:59;;;;;;;1.58;0.80;;;17.20;99.90;;;;;;4994250;28;20034;-77
2021/06/23 12:15:26;;;;;;;0.88;0.63;;;17.20;99.90;;;;;;5000903;28;20082;-78
2021/06/23 12:17:56;;;;;;;0.73;0.70;;;17.30;99.90;;;;;;4993627;28;20029;-77
2021/06/23 12:20:23;;;;;;;0.95;0.65;;;17.20;99.90;;;;;;4994053;28;20025;-77
2021/06/23 12:22:56;;;;;;;3.05;0.60;;;17.10;99.90;;;;;;4993977;28;20042;-77
2021/06/23 12:25:34;;;;;;;4.45;1.00;;;17.20;99.90;;;;;;4994275;28;20023;-77
2021/06/23 12:28:02;;;;;;;0.95;0.70;;;17.30;99.90;;;;;;4994110;28;20034;-78
2021/06/23 12:30:28;;;;;;;1.75;0.88;;;17.30;99.90;;;;;;4993918;28;20037;-76
2021/06/23 12:32:55;;;;;;;2.17;0.75;;;17.30;99.90;;;;;;4993849;28;20026;-77
2021/06/23 12:35:22;;;;;;;4.00;1.20;;;17.30;99.90;;;;;;4993712;28;20514;-73
2021/06/23 12:37:47;;;;;;;1.30;0.80;;;17.30;99.90;;;;;;4993758;28;20510;-72
2021/06/23 12:40:14;;;;;;;7.22;0.98;;;17.20;99.90;;;;;;4993768;28;20026;-72
2021/06/23 12:42:40;;;;;;;2.03;0.75;;;17.20;99.90;;;;;;4993862;28;20113;-72
2021/06/23 12:45:06;;;;;;;3.90;0.70;;;17.10;99.90;;;;;;4994059;28;20453;-72
2021/06/23 12:47:32;;;;;;;0.80;0.50;;;17.20;99.90;;;;;;4993861;28;20089;-72
2021/06/23 12:49:57;;;;;;;0.98;0.70;;;17.30;99.90;;;;;;4993497;28;20409;-72
2021/06/23 12:52:23;;;;;;;1.25;0.70;;;17.30;99.90;;;;;;4993367;28;20056;-72
2021/06/23 12:54:49;;;;;;;2.35;0.70;;;17.30;99.90;;;;;;4993543;28;20035;-72
2021/06/23 12:57:15;;;;;;;1.35;0.60;;;17.30;99.90;;;;;;4993947;28;20018;-72
2021/06/23 12:59:41;;;;;;;2.78;0.60;;;17.40;99.90;;;;;;4993427;28;20501;-72
2021/06/23 13:02:07;;;;;;;0.77;0.43;;;17.40;99.90;;;;;;4993232;28;20030;-72
2021/06/23 13:04:33;;;;;;;5.68;0.75;;;17.50;99.90;;;;;;4993412;28;20029;-72
2021/06/23 13:06:58;;;;;;;0.82;0.45;;;17.60;99.90;;;;;;4998797;28;20030;-72
2021/06/23 13:09:24;;;;;;;2.45;0.40;;;17.50;99.90;;;;;;5012713;28;20022;-72
2021/06/23 13:11:50;;;;;;;0.80;0.47;;;17.40;99.90;;;;;;4997454;28;20077;-72
2021/06/23 13:14:16;;;;;;;3.10;0.50;;;17.40;99.90;;;;;;4995739;28;20029;-72
2021/06/23 13:16:43;;;;;;;0.38;0.38;;;17.40;99.10;;;;;;4998137;28;20022;-72
2021/06/23 13:19:09;;;;;;;2.33;0.65;;;17.40;99.00;;;;;;4995595;28;20045;-71
2021/06/23 13:21:35;;;;;;;2.15;0.50;;;17.30;99.90;;;;;;5003606;28;20070;-71
2021/06/23 13:24:01;;;;;;;0.55;0.35;;;17.30;99.90;;;;;;5001105;28;20030;-71
2021/06/23 13:26:27;;;;;;;0.43;0.35;;;17.40;99.90;;;;;;5000870;28;20022;-70
2021/06/23 13:28:53;;;;;;;0.40;0.30;;;17.40;99.60;;;;;;4999161;28;20093;-70
2021/06/23 13:31:19;;;;;;;0.77;0.30;;;17.40;98.70;;;;;;5001659;28;20382;-71
2021/06/23 13:33:45;;;;;;;2.63;0.40;;;17.40;98.90;;;;;;5001408;28;20025;-70
2021/06/23 13:36:11;;;;;;;0.80;0.40;;;17.40;98.10;;;;;;5002150;28;20030;-70
2021/06/23 13:38:36;;;;;;;1.85;0.43;;;17.40;98.70;;;;;;5003454;28;20417;-70
2021/06/23 13:41:03;;;;;;;0.50;0.40;;;17.40;98.90;;;;;;5003095;28;20489;-70
2021/06/23 13:43:30;;;;;;;4.07;0.60;;;17.40;98.20;;;;;;5001537;28;20014;-70
2021/06/23 13:45:57;;;;;;;2.58;0.30;;;17.40;97.10;;;;;;5010028;28;20029;-70